Time;durP1;ratioP1;P1;durP2;ratioP2;P2;SDS_P1;SDS_P2;PMS_P1;PMS_P2;Temp;Humidity;BMP_temperature;BMP_pressure;BME280_temperature;BME280_humidity;BME280_pressure;Samples;Min_cycle;Max_cycle;Signal;HPM_P1;HPM_P2
2020/12/01 00:01:32;;;;;;;35.65;18.67;;;;;;;-1.11;72.38;95930.06;5071785;28;20126;-45
2020/12/01 00:03:59;;;;;;;33.72;17.60;;;;;;;-0.97;71.99;95944.47;5071330;28;20072;-45
2020/12/01 00:06:25;;;;;;;29.98;16.35;;;;;;;-0.95;71.75;95921.09;5071103;28;20098;-49
2020/12/01 00:08:51;;;;;;;33.30;16.60;;;;;;;-0.93;72.02;95928.81;5071693;28;20489;-52
2020/12/01 00:11:18;;;;;;;35.40;18.15;;;;;;;-1.04;71.66;95904.88;5071617;28;20106;-45
2020/12/01 00:13:46;;;;;;;33.08;18.00;;;;;;;-0.97;72.01;95936.50;5071693;28;20497;-45
2020/12/01 00:16:14;;;;;;;33.25;17.52;;;;;;;-1.20;72.91;95938.53;5070783;28;20497;-45
2020/12/01 00:18:41;;;;;;;35.47;18.40;;;;;;;-1.90;75.39;95950.22;5072109;28;20052;-45
2020/12/01 00:21:14;;;;;;;37.25;18.38;;;;;;;-2.04;76.64;95943.75;5071604;28;20044;-48
2020/12/01 00:23:40;;;;;;;37.33;18.30;;;;;;;-2.14;77.42;95939.94;5071844;28;20460;-47
2020/12/01 00:26:07;;;;;;;35.90;18.83;;;;;;;-2.32;77.06;95929.69;5070590;28;20070;-46
2020/12/01 00:28:34;;;;;;;38.08;19.48;;;;;;;-2.38;77.31;95933.34;5071668;28;20127;-44
2020/12/01 00:31:02;;;;;;;37.78;18.10;;;;;;;-1.99;76.47;95931.31;5071279;28;20052;-47
2020/12/01 00:33:29;;;;;;;34.42;17.67;;;;;;;-2.06;76.32;95937.88;5071413;28;20421;-45
2020/12/01 00:35:55;;;;;;;33.08;18.02;;;;;;;-2.01;76.48;95940.59;5070985;28;20103;-49
2020/12/01 00:38:21;;;;;;;42.97;19.70;;;;;;;-2.20;77.04;95948.91;5071639;28;20047;-47
2020/12/01 00:40:48;;;;;;;36.75;18.20;;;;;;;-2.37;77.67;95950.88;5071524;28;20508;-44
2020/12/01 00:43:15;;;;;;;38.60;18.27;;;;;;;-2.22;77.89;95942.25;5071579;28;20080;-46
2020/12/01 00:45:43;;;;;;;36.85;17.80;;;;;;;-1.94;76.74;95935.88;5070554;28;20056;-45
2020/12/01 00:48:12;;;;;;;34.13;18.25;;;;;;;-1.80;75.36;95929.09;5071046;28;20132;-49
2020/12/01 00:50:38;;;;;;;35.28;18.73;;;;;;;-1.58;75.03;95928.19;5086961;28;20045;-50
2020/12/01 00:53:06;;;;;;;37.38;19.45;;;;;;;-1.53;74.29;95918.41;5086593;28;20521;-49
2020/12/01 00:55:33;;;;;;;38.13;19.95;;;;;;;-1.34;74.12;95925.94;5073157;28;20520;-48
2020/12/01 00:58:00;;;;;;;34.45;18.85;;;;;;;-1.22;73.21;95922.03;5090689;28;20139;-50
2020/12/01 01:00:29;;;;;;;35.25;17.45;;;;;;;-1.04;72.56;95910.19;5075304;28;20094;-49
2020/12/01 01:03:07;;;;;;;36.70;18.65;;;;;;;-1.11;72.71;95917.56;5091022;28;20477;-48
2020/12/01 01:05:33;;;;;;;36.38;18.42;;;;;;;-1.17;72.88;95910.63;5074553;28;20131;-48
2020/12/01 01:08:00;;;;;;;34.55;16.67;;;;;;;-1.17;72.18;95907.97;5074842;28;20144;-48
2020/12/01 01:10:31;;;;;;;33.35;17.33;;;;;;;-1.30;72.03;95905.78;5074642;28;20052;-46
2020/12/01 01:12:58;;;;;;;36.90;19.23;;;;;;;-1.43;72.61;95888.47;5074946;28;20401;-49
2020/12/01 01:15:29;;;;;;;36.92;16.77;;;;;;;-1.45;72.66;95887.94;5073879;28;20063;-48
2020/12/01 01:17:57;;;;;;;34.33;17.73;;;;;;;-1.29;72.48;95883.53;5074860;28;20048;-49
2020/12/01 01:20:25;;;;;;;33.42;17.05;;;;;;;-1.08;71.73;95889.72;5074706;28;20123;-44
2020/12/01 01:22:51;;;;;;;35.67;18.08;;;;;;;-1.27;72.00;95884.88;5074521;28;20181;-46
2020/12/01 01:25:17;;;;;;;32.53;17.52;;;;;;;-1.26;72.24;95875.03;5073897;28;20132;-46
2020/12/01 01:27:45;;;;;;;31.67;17.33;;;;;;;-1.14;72.47;95882.78;5074650;28;20045;-46
2020/12/01 01:30:14;;;;;;;31.40;16.48;;;;;;;-0.98;72.16;95865.84;5074643;28;20074;-46
2020/12/01 01:32:41;;;;;;;31.52;16.65;;;;;;;-0.88;72.66;95857.13;5074334;28;20308;-46
2020/12/01 01:35:11;;;;;;;34.10;18.23;;;;;;;-0.82;72.14;95854.22;5074326;28;20049;-45
2020/12/01 01:37:38;;;;;;;33.38;16.40;;;;;;;-0.76;72.51;95839.88;5073982;28;20060;-45
2020/12/01 01:40:05;;;;;;;31.30;16.17;;;;;;;-0.83;72.63;95841.22;5074585;28;20075;-48
2020/12/01 01:42:32;;;;;;;28.23;15.18;;;;;;;-0.79;73.18;95844.94;5074631;28;20460;-45
2020/12/01 01:44:58;;;;;;;27.98;14.82;;;;;;;-0.69;72.77;95836.97;5074248;28;20052;-46
2020/12/01 01:47:31;;;;;;;28.08;15.05;;;;;;;-0.74;72.79;95840.44;5073540;28;20045;-44
2020/12/01 01:50:22;;;;;;;32.57;15.47;;;;;;;-0.76;72.77;95847.06;5074577;28;20076;-46
2020/12/01 01:52:50;;;;;;;26.65;15.18;;;;;;;-0.74;72.81;95850.28;5074097;28;20128;-46
2020/12/01 01:55:27;;;;;;;29.05;15.05;;;;;;;-0.67;72.80;95844.69;5073496;28;20116;-48
2020/12/01 01:58:00;;;;;;;29.52;15.85;;;;;;;-0.59;72.03;95830.88;5074424;28;20102;-48
2020/12/01 02:03:29;;;;;;;35.75;17.83;;;;;;;-1.73;75.33;95844.00;5074483;28;20063;-45
2020/12/01 02:05:57;;;;;;;32.20;17.10;;;;;;;-1.82;76.77;95870.22;5072904;28;20079;-48
2020/12/01 02:08:25;;;;;;;34.28;16.33;;;;;;;-1.90;76.82;95860.88;5073487;28;20520;-49
2020/12/01 02:10:53;;;;;;;30.55;16.30;;;;;;;-1.53;76.11;95852.06;5073870;28;20399;-49
2020/12/01 02:13:43;;;;;;;28.60;14.75;;;;;;;-1.41;75.78;95846.56;5073705;28;20145;-50
2020/12/01 02:16:10;;;;;;;29.95;15.88;;;;;;;-1.23;74.94;95854.09;5072924;28;20476;-48
2020/12/01 02:18:38;;;;;;;30.40;15.63;;;;;;;-1.23;74.49;95832.84;5088761;28;20517;-49
2020/12/01 02:21:28;;;;;;;29.25;15.65;;;;;;;-0.90;73.75;95832.69;5073737;28;20057;-49
2020/12/01 02:23:57;;;;;;;28.10;14.32;;;;;;;-0.87;73.54;95822.34;5073629;28;20048;-51
2020/12/01 02:26:24;;;;;;;27.83;15.32;;;;;;;-0.79;72.94;95802.44;5072681;28;20049;-48
2020/12/01 02:28:50;;;;;;;30.13;14.75;;;;;;;-0.68;72.77;95806.72;5073462;28;20048;-50
2020/12/01 02:31:17;;;;;;;25.20;14.68;;;;;;;-0.66;72.41;95801.13;5073353;28;20142;-49
2020/12/01 02:33:43;;;;;;;29.25;16.08;;;;;;;-0.50;71.97;95805.38;5073182;28;20135;-52
2020/12/01 02:36:09;;;;;;;29.88;15.77;;;;;;;-0.43;71.32;95802.47;5088161;28;20106;-49
2020/12/01 02:38:36;;;;;;;29.05;15.13;;;;;;;-0.51;71.92;95803.81;5073194;28;20048;-48
2020/12/01 02:41:02;;;;;;;24.50;14.07;;;;;;;-0.37;71.40;95801.41;5073188;28;20082;-52
2020/12/01 02:43:29;;;;;;;29.15;15.45;;;;;;;-0.27;70.99;95796.88;5073091;28;20052;-49
2020/12/01 02:45:55;;;;;;;26.83;13.70;;;;;;;-0.20;70.58;95790.50;5072490;28;20048;-50
2020/12/01 02:48:22;;;;;;;25.42;14.80;;;;;;;-0.22;70.67;95787.34;5073055;28;20054;-49
2020/12/01 02:50:49;;;;;;;26.50;14.35;;;;;;;-0.13;70.47;95772.41;5072772;28;20044;-49
2020/12/01 02:53:15;;;;;;;28.55;15.30;;;;;;;-0.36;70.48;95744.50;5073198;28;20052;-47
2020/12/01 02:55:42;;;;;;;29.08;14.73;;;;;;;-0.11;70.22;95779.06;5072294;28;20501;-49
2020/12/01 02:58:08;;;;;;;28.13;16.08;;;;;;;-0.25;70.52;95775.34;5071795;28;20075;-49
2020/12/01 03:00:35;;;;;;;29.13;14.98;;;;;;;-0.37;70.99;95772.97;5072957;28;20048;-50
2020/12/01 03:03:01;;;;;;;28.23;15.50;;;;;;;-0.44;71.53;95767.13;5072650;28;20056;-48
2020/12/01 03:05:28;;;;;;;28.95;15.52;;;;;;;-0.37;71.27;95764.19;5071998;28;20089;-50
2020/12/01 03:07:54;;;;;;;27.38;15.10;;;;;;;-0.35;70.82;95768.19;5072659;28;20044;-49
2020/12/01 03:10:21;;;;;;;27.40;16.10;;;;;;;-0.37;70.47;95765.00;5072603;28;20057;-50
2020/12/01 03:12:47;;;;;;;28.25;14.95;;;;;;;-0.27;70.17;95764.97;5072330;28;20176;-51
2020/12/01 03:15:15;;;;;;;26.45;14.27;;;;;;;-0.26;70.39;95771.91;5072221;28;20071;-47
2020/12/01 03:17:41;;;;;;;26.00;14.70;;;;;;;-0.15;70.25;95766.59;5071232;28;20137;-49
2020/12/01 03:20:08;;;;;;;27.48;14.15;;;;;;;-0.13;69.72;95759.13;5072341;28;20076;-48
2020/12/01 03:22:35;;;;;;;26.00;15.15;;;;;;;-0.33;69.88;95758.06;5072733;28;20417;-49
2020/12/01 03:25:01;;;;;;;27.27;14.30;;;;;;;-0.47;70.51;95757.03;5071038;28;20444;-50
2020/12/01 03:27:27;;;;;;;24.98;13.70;;;;;;;-0.67;70.96;95759.69;5071683;28;20048;-49
2020/12/01 03:29:54;;;;;;;32.10;15.77;;;;;;;-0.95;72.11;95764.41;5072233;28;20144;-47
2020/12/01 03:32:23;;;;;;;31.73;16.35;;;;;;;-1.18;73.30;95755.06;5087645;28;20088;-47
2020/12/01 03:34:51;;;;;;;30.77;15.30;;;;;;;-1.21;74.10;95750.28;5072237;28;20080;-44
2020/12/01 03:37:18;;;;;;;31.35;16.67;;;;;;;-1.08;73.64;95755.09;5071509;28;20052;-45
2020/12/01 03:39:44;;;;;;;28.27;14.68;;;;;;;-1.07;73.36;95745.25;5072115;28;20108;-46
2020/12/01 03:42:11;;;;;;;29.30;15.15;;;;;;;-1.15;73.28;95722.69;5072289;28;20048;-46
2020/12/01 03:44:37;;;;;;;30.95;15.77;;;;;;;-0.77;72.64;95733.91;5072011;28;20139;-45
2020/12/01 03:47:04;;;;;;;26.17;14.50;;;;;;;-0.74;72.15;95734.16;5071412;28;20076;-44
2020/12/01 03:49:30;;;;;;;25.58;14.25;;;;;;;-0.50;71.61;95733.63;5072453;28;20091;-47
2020/12/01 03:51:57;;;;;;;27.35;14.05;;;;;;;-0.34;70.90;95732.56;5070894;28;20107;-42
2020/12/01 03:54:23;;;;;;;27.88;14.57;;;;;;;-0.43;70.86;95706.78;5072042;28;20128;-43
2020/12/01 03:56:50;;;;;;;25.25;14.25;;;;;;;-0.34;70.87;95716.59;5071348;28;20545;-44
2020/12/01 03:59:17;;;;;;;27.10;14.27;;;;;;;-0.43;70.97;95718.22;5072285;28;20051;-44
2020/12/01 04:01:43;;;;;;;26.00;14.35;;;;;;;-0.35;70.78;95709.72;5071867;28;20079;-46
2020/12/01 04:04:09;;;;;;;21.95;13.00;;;;;;;-0.26;71.06;95708.09;5072059;28;20132;-44
2020/12/01 04:06:36;;;;;;;26.60;13.73;;;;;;;-0.16;70.94;95703.81;5071297;28;20453;-44
2020/12/01 04:09:04;;;;;;;25.35;14.27;;;;;;;-0.09;70.58;95713.13;5071933;28;20052;-43
2020/12/01 04:11:30;;;;;;;25.05;13.25;;;;;;;-0.03;69.85;95705.94;5071609;28;20052;-45
2020/12/01 04:13:57;;;;;;;24.83;14.23;;;;;;;-0.21;70.29;95685.22;5071586;28;20135;-45
2020/12/01 04:16:23;;;;;;;26.10;13.88;;;;;;;-0.07;69.97;95680.91;5070945;28;20135;-47
2020/12/01 04:18:49;;;;;;;25.35;13.65;;;;;;;0.16;69.63;95695.47;5072210;28;20074;-46
2020/12/01 04:21:16;;;;;;;25.13;13.50;;;;;;;0.22;69.30;95689.84;5071796;28;20098;-45
2020/12/01 04:23:43;;;;;;;25.13;14.15;;;;;;;0.31;69.04;95684.78;5072281;28;20498;-43
2020/12/01 04:26:09;;;;;;;23.63;13.40;;;;;;;0.27;69.39;95688.28;5070717;28;20502;-43
2020/12/01 04:28:36;;;;;;;24.17;14.18;;;;;;;0.11;69.50;95675.00;5086843;28;20048;-46
2020/12/01 04:31:02;;;;;;;19.38;11.88;;;;;;;0.11;69.84;95672.34;5071673;28;20135;-48
2020/12/01 04:33:29;;;;;;;22.55;12.90;;;;;;;0.05;69.59;95667.31;5072068;28;20076;-48
2020/12/01 04:35:55;;;;;;;21.55;12.05;;;;;;;0.13;69.53;95677.38;5070906;28;20048;-48
2020/12/01 04:38:21;;;;;;;22.08;12.48;;;;;;;0.05;69.85;95673.44;5071381;28;20045;-45
2020/12/01 04:40:48;;;;;;;23.10;11.95;;;;;;;0.18;69.32;95664.88;5071644;28;20054;-45
2020/12/01 04:43:34;;;;;;;22.98;13.13;;;;;;;0.21;69.38;95667.00;5071489;28;20485;-45
2020/12/01 04:46:02;;;;;;;20.40;12.00;;;;;;;0.16;69.30;95672.34;5071041;28;20448;-45
2020/12/01 04:48:44;;;;;;;23.20;13.05;;;;;;;0.14;69.49;95668.38;5071459;28;20045;-45
2020/12/01 04:51:21;;;;;;;25.02;12.88;;;;;;;0.13;69.53;95674.72;5071575;28;20063;-45
2020/12/01 04:54:07;;;;;;;19.88;11.75;;;;;;;0.13;69.84;95664.91;5071436;28;20056;-46
2020/12/01 04:57:16;;;;;;;22.45;12.05;;;;;;;0.19;69.55;95655.81;5086239;28;20139;-46
2020/12/01 04:59:45;;;;;;;22.45;12.95;;;;;;;0.22;69.21;95652.63;5071291;28;20524;-45
2020/12/01 05:02:19;;;;;;;22.77;13.75;;;;;;;0.33;68.56;95649.94;5086668;28;20518;-44
2020/12/01 05:05:24;;;;;;;24.52;13.65;;;;;;;0.25;69.11;95647.81;5071141;28;20072;-43
2020/12/01 05:08:24;;;;;;;21.98;12.25;;;;;;;0.16;69.03;95655.56;5071290;28;20131;-47
2020/12/01 05:10:52;;;;;;;21.98;11.75;;;;;;;0.19;69.01;95639.84;5070900;28;20044;-45
2020/12/01 05:13:29;;;;;;;21.42;11.93;;;;;;;0.17;69.03;95638.56;5070929;28;20048;-49
2020/12/01 05:16:21;;;;;;;23.80;13.20;;;;;;;0.23;68.79;95632.94;5070277;28;20045;-46
2020/12/01 05:18:48;;;;;;;20.02;11.00;;;;;;;0.18;68.60;95626.84;5071180;28;20395;-46
2020/12/01 05:21:20;;;;;;;22.55;13.00;;;;;;;0.16;68.51;95619.16;5071018;28;20053;-45
2020/12/01 05:23:48;;;;;;;19.80;11.60;;;;;;;0.00;67.93;95606.97;5070913;28;20509;-46
2020/12/01 05:26:18;;;;;;;19.70;11.27;;;;;;;-0.11;68.44;95630.13;5068677;28;20106;-44
2020/12/01 05:28:53;;;;;;;18.17;10.68;;;;;;;-0.05;68.41;95622.94;5070936;28;20055;-44
2020/12/01 05:31:38;;;;;;;25.23;11.98;;;;;;;-0.07;68.36;95622.41;5070830;28;20167;-44
2020/12/01 05:34:15;;;;;;;18.35;10.40;;;;;;;-0.03;67.74;95608.31;5070823;28;20470;-45
2020/12/01 05:36:42;;;;;;;18.40;10.45;;;;;;;-0.03;67.71;95604.88;5070109;28;20400;-46
2020/12/01 05:39:24;;;;;;;20.38;10.82;;;;;;;0.01;67.59;95610.44;5070818;28;20532;-45
2020/12/01 05:42:12;;;;;;;19.77;10.77;;;;;;;0.08;67.32;95595.75;5073628;28;20154;-44
2020/12/01 05:44:39;;;;;;;18.35;10.52;;;;;;;0.12;66.98;95602.13;5074216;28;20421;-45
2020/12/01 05:47:18;;;;;;;17.50;10.25;;;;;;;0.28;66.65;95602.84;5073659;28;20067;-45
2020/12/01 05:49:44;;;;;;;18.90;10.85;;;;;;;0.34;66.09;95604.41;5074165;28;20058;-46
2020/12/01 05:52:27;;;;;;;16.85;10.63;;;;;;;0.50;65.68;95597.13;5074399;28;20048;-44
2020/12/01 05:55:12;;;;;;;19.42;10.70;;;;;;;0.49;65.34;95595.53;5074087;28;20049;-49
2020/12/01 05:57:40;;;;;;;16.52;9.77;;;;;;;0.36;65.59;95599.63;5073988;28;20519;-46
2020/12/01 06:00:16;;;;;;;15.55;9.10;;;;;;;0.54;65.37;95590.16;5073998;28;20464;-45
2020/12/01 06:02:48;;;;;;;15.70;9.13;;;;;;;0.58;64.90;95590.41;5074015;28;20059;-46
2020/12/01 06:05:21;;;;;;;17.48;10.05;;;;;;;0.56;64.65;95574.72;5073763;28;20461;-48
2020/12/01 06:07:49;;;;;;;;;;;;;;;0.87;64.04;95593.13;5074650;28;20131;-45
2020/12/01 06:10:37;;;;;;;17.02;9.05;;;;;;;0.69;64.35;95576.75;5074318;28;20003;-44
2020/12/01 06:13:31;;;;;;;19.08;10.65;;;;;;;0.82;63.93;95587.84;5074133;28;20056;-48
2020/12/01 06:16:03;;;;;;;;;;;;;;;1.03;63.09;95588.47;5073533;28;20071;-47
2020/12/01 06:18:49;;;;;;;18.15;9.35;;;;;;;0.93;63.90;95584.03;5073729;28;20416;-46
2020/12/01 06:21:24;;;;;;;18.27;9.65;;;;;;;0.92;63.73;95582.44;5052635;28;20575;-46
2020/12/01 06:24:27;;;;;;;15.80;8.80;;;;;;;0.86;64.51;95563.03;5073733;28;20064;-44
2020/12/01 06:27:05;;;;;;;16.65;9.23;;;;;;;0.78;64.33;95571.63;5072986;28;20044;-45
2020/12/01 06:29:54;;;;;;;13.98;8.30;;;;;;;0.85;64.97;95571.31;5072358;28;20083;-45
2020/12/01 06:32:38;;;;;;;16.73;9.27;;;;;;;0.89;65.33;95572.34;5073539;28;20098;-45
2020/12/01 06:35:32;;;;;;;16.92;9.52;;;;;;;0.77;65.94;95570.03;5073287;28;20493;-48
2020/12/01 06:38:13;;;;;;;19.30;10.48;;;;;;;0.75;66.53;95572.19;5089026;28;20078;-47
2020/12/01 06:40:49;;;;;;;21.63;10.02;;;;;;;0.58;67.14;95561.13;5073516;28;20070;-46
2020/12/01 06:43:33;;;;;;;19.20;9.98;;;;;;;0.53;67.42;95564.63;5073486;28;20076;-45
2020/12/01 06:45:59;;;;;;;;;;;;;;;0.50;67.46;95565.19;5072827;28;20097;-43
2020/12/01 06:48:42;;;;;;;15.88;8.32;;;;;;;0.29;68.57;95553.84;5073272;28;19921;-49
2020/12/01 06:51:12;;;;;;;16.52;8.88;;;;;;;0.35;68.77;95547.44;5073202;28;20482;-46
2020/12/01 06:53:40;;;;;;;18.50;9.18;;;;;;;0.45;68.90;95554.56;5088470;28;20529;-45
2020/12/01 06:56:06;;;;;;;21.52;9.63;;;;;;;0.59;68.57;95557.41;5072527;28;20139;-45
2020/12/01 06:58:37;;;;;;;17.52;9.05;;;;;;;0.30;68.71;95496.13;5073239;28;20126;-45
2020/12/01 07:01:17;;;;;;;17.67;8.80;;;;;;;0.62;68.83;95547.00;5073740;28;20421;-46
2020/12/01 07:03:45;;;;;;;15.95;9.07;;;;;;;0.72;68.92;95550.66;5073342;28;20072;-45
2020/12/01 07:06:40;;;;;;;16.67;9.70;;;;;;;0.89;69.04;95545.72;5072661;28;20048;-46
2020/12/01 07:09:15;;;;;;;14.27;8.23;;;;;;;0.79;69.15;95537.81;5072674;28;20052;-49
2020/12/01 07:12:21;;;;;;;16.77;8.80;;;;;;;0.93;69.43;95546.72;5071528;28;20123;-45
2020/12/01 07:14:50;;;;;;;22.88;10.05;;;;;;;0.96;70.95;95540.84;5072089;28;20066;-47
2020/12/01 07:17:19;;;;;;;20.38;10.20;;;;;;;1.07;70.85;95546.88;5071686;28;20128;-49
2020/12/01 07:19:59;;;;;;;15.60;8.80;;;;;;;1.13;70.36;95541.19;5072812;28;20056;-47
2020/12/01 07:22:51;;;;;;;23.38;10.70;;;;;;;1.27;70.43;95546.69;5072679;28;20079;-46
2020/12/01 07:25:22;;;;;;;19.42;10.20;;;;;;;1.29;70.69;95546.38;5072106;28;20102;-46
2020/12/01 07:28:03;;;;;;;18.90;9.75;;;;;;;1.28;70.63;95547.47;5072303;28;20178;-46
2020/12/01 07:30:44;;;;;;;15.43;8.70;;;;;;;1.23;70.81;95542.19;5072351;28;20131;-47
2020/12/01 07:33:14;;;;;;;20.98;10.25;;;;;;;1.39;70.91;95547.06;5072442;28;20528;-49
2020/12/01 07:35:43;;;;;;;19.45;10.43;;;;;;;1.34;70.66;95549.00;5071452;28;20045;-46
2020/12/01 07:38:30;;;;;;;18.80;9.15;;;;;;;1.16;71.64;95558.50;5071737;28;20058;-47
2020/12/01 07:41:33;;;;;;;17.25;9.40;;;;;;;1.29;71.52;95557.06;5072373;28;20106;-45
2020/12/01 07:44:06;;;;;;;18.58;9.18;;;;;;;1.16;72.51;95555.84;5049104;28;20103;-46
2020/12/01 07:49:24;;;;;;;15.82;8.43;;;;;;;1.04;72.29;95552.75;5072254;28;20355;-49
2020/12/01 07:51:58;;;;;;;17.02;9.27;;;;;;;1.10;73.06;95549.75;5071933;28;20048;-49
2020/12/01 07:54:26;;;;;;;17.00;9.75;;;;;;;1.10;73.15;95547.09;5071952;28;20137;-51
2020/12/01 07:56:52;;;;;;;20.55;11.20;;;;;;;1.05;73.50;95517.84;5086408;28;20044;-50
2020/12/01 07:59:18;;;;;;;16.52;8.75;;;;;;;1.30;72.76;95545.31;5071746;28;20131;-50
2020/12/01 08:01:45;;;;;;;15.25;9.00;;;;;;;1.29;72.70;95549.06;5071643;28;20048;-51
2020/12/01 08:04:13;;;;;;;16.40;9.48;;;;;;;1.38;72.46;95544.69;5069753;28;20119;-47
2020/12/01 08:06:41;;;;;;;16.55;10.02;;;;;;;1.42;72.41;95551.03;5071042;28;20409;-53
2020/12/01 08:09:20;;;;;;;20.92;10.00;;;;;;;1.30;73.33;95535.47;5071629;28;20087;-47
2020/12/01 08:11:48;;;;;;;17.35;9.90;;;;;;;1.15;72.94;95500.97;5071906;28;20059;-48
2020/12/01 08:14:16;;;;;;;19.27;10.32;;;;;;;1.36;72.84;95530.84;5071708;28;20055;-49
2020/12/01 08:16:44;;;;;;;17.85;9.40;;;;;;;1.38;73.05;95536.72;5070987;28;20049;-47
2020/12/01 08:19:12;;;;;;;18.02;9.60;;;;;;;1.37;73.16;95535.91;5087084;28;20093;-50
2020/12/01 08:21:44;;;;;;;17.02;9.88;;;;;;;1.44;73.29;95532.91;5071485;28;20048;-49
2020/12/01 08:24:23;;;;;;;18.60;9.63;;;;;;;1.42;73.24;95540.38;5072194;28;20076;-48
2020/12/01 08:27:03;;;;;;;18.35;9.65;;;;;;;1.46;73.46;95536.06;5070031;28;20476;-45
2020/12/01 08:29:34;;;;;;;17.88;9.43;;;;;;;1.38;73.63;95529.50;5090167;28;20554;-45
2020/12/01 08:32:26;;;;;;;18.23;9.98;;;;;;;1.51;73.21;95529.91;5074061;28;20589;-48
2020/12/01 08:35:05;;;;;;;15.18;8.80;;;;;;;1.53;73.13;95530.41;5073279;28;20052;-51
2020/12/01 08:37:57;;;;;;;17.23;8.85;;;;;;;1.60;73.20;95529.00;5087763;28;20048;-48
2020/12/01 08:40:37;;;;;;;17.70;9.88;;;;;;;1.46;73.60;95504.06;5072258;28;20052;-47
2020/12/01 08:43:19;;;;;;;15.52;8.55;;;;;;;1.74;73.25;95533.63;5072869;28;20456;-45
2020/12/01 08:45:53;;;;;;;16.80;9.57;;;;;;;1.80;72.95;95529.81;5071136;28;20563;-53
2020/12/01 08:48:23;;;;;;;19.63;9.95;;;;;;;1.73;73.05;95527.50;5071819;28;20079;-53
2020/12/01 08:51:00;;;;;;;14.93;8.50;;;;;;;1.90;73.01;95523.56;5070855;28;20091;-53
2020/12/01 08:53:26;;;;;;;17.63;9.63;;;;;;;1.86;73.15;95526.00;5072381;28;20131;-53
2020/12/01 08:55:57;;;;;;;18.55;9.70;;;;;;;1.83;73.60;95515.91;5072322;28;20058;-44
2020/12/01 08:58:26;;;;;;;14.68;8.70;;;;;;;1.90;73.67;95526.22;5072806;28;20041;-46
2020/12/01 09:01:04;;;;;;;14.30;8.57;;;;;;;2.04;73.37;95513.75;5071920;28;20516;-46
2020/12/01 09:03:33;;;;;;;19.35;9.23;;;;;;;2.10;72.98;95521.41;5071686;28;20110;-45
2020/12/01 09:06:04;;;;;;;16.85;9.35;;;;;;;2.19;73.09;95512.75;5086606;28;20044;-50
2020/12/01 09:08:48;;;;;;;16.85;8.98;;;;;;;2.30;73.04;95527.53;5071144;28;20052;-45
2020/12/01 09:19:38;;;;;;;15.52;8.70;;;;;;;2.30;73.93;95508.84;5075341;28;20094;-46
2020/12/01 09:22:32;;;;;;;15.20;9.25;;;;;;;2.47;73.74;95514.50;5075277;28;20106;-47
2020/12/01 09:25:24;;;;;;;16.00;8.23;;;;;;;2.40;73.96;95521.25;5075129;28;20075;-48
2020/12/01 09:27:52;;;;;;;15.63;9.27;;;;;;;2.39;74.15;95509.00;5074902;28;20076;-48
2020/12/01 09:30:34;;;;;;;14.82;9.05;;;;;;;2.46;74.45;95504.88;5074969;28;20078;-45
2020/12/01 09:33:02;;;;;;;15.98;8.35;;;;;;;2.44;74.60;95500.91;5075297;28;20057;-50
2020/12/01 09:35:29;;;;;;;15.68;7.72;;;;;;;2.33;74.93;95503.72;5073961;28;20072;-50
2020/12/01 09:37:56;;;;;;;16.85;7.82;;;;;;;2.36;75.02;95501.56;5074441;28;20422;-50
2020/12/01 09:40:25;;;;;;;13.55;7.60;;;;;;;2.28;74.96;95503.81;5073279;28;20067;-48
2020/12/01 09:42:56;;;;;;;15.07;8.60;;;;;;;2.27;75.27;95482.75;5074668;28;20060;-47
2020/12/01 09:45:29;;;;;;;14.90;7.00;;;;;;;2.53;74.33;95499.94;5073853;28;20044;-47
2020/12/01 09:50:52;;;;;;;10.20;6.07;;;;;;;2.44;73.74;95491.03;5060576;28;20063;-46
2020/12/01 09:54:08;;;;;;;14.73;7.05;;;;;;;2.58;73.57;95507.09;5075258;28;20055;-48
2020/12/01 10:09:41;;;;;;;12.70;6.97;;;;;;;2.21;74.39;95481.22;5074396;28;20056;-48
2020/12/01 10:12:17;;;;;;;14.20;5.70;;;;;;;2.51;72.80;95504.00;5074103;28;20151;-46
2020/12/01 10:36:05;;;;;;;12.43;6.40;;;;;;;2.90;72.68;95478.81;5072794;28;20045;-44
2020/12/01 10:38:32;;;;;;;16.02;8.15;;;;;;;2.96;72.70;95496.34;5073543;28;20063;-50
2020/12/01 10:40:59;;;;;;;10.27;6.65;;;;;;;3.01;72.94;95498.91;5073522;28;20082;-46
2020/12/01 10:43:25;;;;;;;10.90;6.80;;;;;;;3.13;72.30;95493.88;5073448;28;20053;-50
2020/12/01 10:45:51;;;;;;;11.57;7.00;;;;;;;3.18;72.12;95493.78;5072531;28;20037;-48
2020/12/01 10:48:19;;;;;;;11.90;7.72;;;;;;;3.35;72.20;95493.22;5073330;28;20528;-48
2020/12/01 10:50:46;;;;;;;14.48;7.90;;;;;;;3.41;72.22;95497.38;5073666;28;20048;-51
2020/12/01 10:53:12;;;;;;;13.50;7.47;;;;;;;3.44;72.00;95493.28;5073041;28;20135;-50
2020/12/01 10:55:39;;;;;;;10.18;6.15;;;;;;;3.40;71.92;95493.09;5072288;28;20045;-45
2020/12/01 10:58:05;;;;;;;10.07;6.53;;;;;;;3.47;71.87;95496.16;5081181;28;20068;-44
2020/12/01 11:00:32;;;;;;;11.63;7.32;;;;;;;3.57;71.68;95499.72;5072190;28;20057;-51
2020/12/01 11:02:59;;;;;;;13.77;6.63;;;;;;;3.58;71.65;95477.25;5072936;28;20059;-51
2020/12/01 11:05:31;;;;;;;15.10;8.00;;;;;;;3.79;71.67;95485.66;5072381;28;20078;-47
2020/12/01 11:07:57;;;;;;;14.85;7.38;;;;;;;3.72;71.85;95465.44;5073209;28;20159;-46
2020/12/01 11:10:24;;;;;;;13.32;8.45;;;;;;;3.75;72.20;95488.94;5073236;28;20044;-44
2020/12/01 11:12:50;;;;;;;14.93;7.32;;;;;;;3.69;72.22;95495.47;5073133;28;20083;-44
2020/12/01 11:15:17;;;;;;;12.18;7.68;;;;;;;3.68;72.14;95490.44;5088057;28;20054;-48
2020/12/01 11:17:44;;;;;;;13.57;8.07;;;;;;;3.76;72.20;95497.75;5073323;28;20052;-44
2020/12/01 11:20:12;;;;;;;13.48;8.07;;;;;;;3.76;72.25;95492.38;5073075;28;20139;-54
2020/12/01 11:22:39;;;;;;;11.27;7.32;;;;;;;3.82;72.35;95488.53;5072842;28;20056;-48
2020/12/01 11:25:06;;;;;;;10.98;7.30;;;;;;;3.61;72.43;95479.34;5072509;28;20203;-44
2020/12/01 11:27:32;;;;;;;14.07;8.57;;;;;;;3.67;72.82;95496.84;5072922;28;20632;-46
2020/12/01 11:29:58;;;;;;;20.33;9.70;;;;;;;3.39;74.03;95488.84;5072688;28;20044;-47
2020/12/01 11:32:25;;;;;;;16.52;8.65;;;;;;;3.09;74.72;95498.22;5072588;28;20056;-45
2020/12/01 11:34:51;;;;;;;14.73;8.25;;;;;;;3.09;75.11;95487.53;5072970;28;20043;-47
2020/12/01 11:37:17;;;;;;;14.52;8.85;;;;;;;3.07;74.54;95467.53;5071964;28;20048;-48
2020/12/01 11:39:44;;;;;;;17.15;9.50;;;;;;;3.02;75.00;95471.06;5070726;28;20053;-46
2020/12/01 11:42:10;;;;;;;17.30;9.32;;;;;;;2.90;76.68;95492.16;5072694;28;20041;-44
2020/12/01 11:44:37;;;;;;;17.63;9.73;;;;;;;2.91;76.07;95486.50;5072479;28;20049;-45
2020/12/01 11:47:03;;;;;;;18.73;9.35;;;;;;;3.08;75.88;95488.59;5073346;28;20048;-44
2020/12/01 11:49:30;;;;;;;16.13;8.85;;;;;;;3.20;74.75;95474.78;5074628;28;20093;-48
2020/12/01 11:51:56;;;;;;;19.08;10.13;;;;;;;3.19;75.71;95481.22;5072707;28;20048;-48
2020/12/01 11:54:22;;;;;;;16.85;8.90;;;;;;;3.39;74.74;95496.09;5072436;28;20076;-47
2020/12/01 11:56:49;;;;;;;18.17;9.63;;;;;;;3.45;74.56;95484.19;5071540;28;20131;-49
2020/12/01 11:59:15;;;;;;;15.82;9.60;;;;;;;3.57;74.59;95486.34;5071976;28;20083;-51
2020/12/01 12:01:42;;;;;;;21.13;9.80;;;;;;;3.63;74.13;95483.28;5072800;28;20057;-46
2020/12/01 12:04:08;;;;;;;16.30;9.27;;;;;;;3.48;74.29;95489.75;5072595;28;20549;-46
2020/12/01 12:06:38;;;;;;;16.73;9.02;;;;;;;3.44;74.78;95486.06;5071630;28;20075;-49
2020/12/01 12:09:05;;;;;;;12.90;7.95;;;;;;;3.48;74.76;95489.75;5071721;28;20079;-48
2020/12/01 12:11:32;;;;;;;16.80;8.40;;;;;;;3.66;74.02;95489.94;5054596;28;20566;-46
2020/12/01 12:14:00;;;;;;;14.65;9.00;;;;;;;3.64;73.29;95482.22;5072203;28;20103;-51
2020/12/01 12:16:26;;;;;;;17.40;9.55;;;;;;;3.27;73.43;95424.38;5071375;28;20068;-49
2020/12/01 12:18:53;;;;;;;15.68;9.88;;;;;;;3.62;73.68;95467.53;5072001;28;20108;-47
2020/12/01 12:21:19;;;;;;;15.60;10.48;;;;;;;3.74;73.72;95481.22;5071705;28;20458;-46
2020/12/01 12:23:47;;;;;;;15.77;9.18;;;;;;;3.47;74.01;95503.41;5071753;28;20056;-46
2020/12/01 12:26:14;;;;;;;15.73;9.82;;;;;;;3.35;74.68;95484.38;5071127;28;20078;-46
2020/12/01 12:28:41;;;;;;;23.65;10.82;;;;;;;3.54;74.20;95481.59;5071661;28;20497;-47
2020/12/01 12:31:08;;;;;;;17.15;10.05;;;;;;;3.61;74.05;95482.03;5071653;28;20405;-46
2020/12/01 12:33:34;;;;;;;21.67;10.65;;;;;;;3.66;73.92;95479.22;5072438;28;20479;-46
2020/12/01 12:36:01;;;;;;;22.83;12.18;;;;;;;3.43;74.65;95462.31;5071732;28;20378;-46
2020/12/01 12:38:28;;;;;;;18.15;11.23;;;;;;;3.55;74.67;95483.22;5072094;28;20113;-45